sensor_id;sensor_type;location;lat;lon;timestamp;P1;durP1;ratioP1;P2;durP2;ratioP2
68854;SDS011;69984;-43.570;172.580;2023-05-07T00:00:03;10.77;;;3.00;;
68854;SDS011;69984;-43.570;172.580;2023-05-07T00:02:34;5.03;;;2.72;;
68854;SDS011;69984;-43.570;172.580;2023-05-07T00:05:03;14.57;;;3.10;;
68854;SDS011;69984;-43.570;172.580;2023-05-07T00:07:30;10.73;;;2.83;;
68854;SDS011;69984;-43.570;172.580;2023-05-07T00:09:57;11.50;;;3.03;;
68854;SDS011;69984;-43.570;172.580;2023-05-07T00:12:24;10.95;;;3.53;;
68854;SDS011;69984;-43.570;172.580;2023-05-07T00:14:51;10.60;;;3.10;;
68854;SDS011;69984;-43.570;172.580;2023-05-07T00:17:19;11.80;;;3.67;;
68854;SDS011;69984;-43.570;172.580;2023-05-07T00:19:46;15.30;;;3.83;;
68854;SDS011;69984;-43.570;172.580;2023-05-07T00:22:13;12.25;;;3.28;;
68854;SDS011;69984;-43.570;172.580;2023-05-07T00:24:41;17.38;;;4.63;;
68854;SDS011;69984;-43.570;172.580;2023-05-07T00:27:08;13.27;;;3.53;;
68854;SDS011;69984;-43.570;172.580;2023-05-07T00:29:35;13.82;;;3.60;;
68854;SDS011;69984;-43.570;172.580;2023-05-07T00:32:02;14.35;;;3.03;;
68854;SDS011;69984;-43.570;172.580;2023-05-07T00:34:30;21.85;;;3.58;;
68854;SDS011;69984;-43.570;172.580;2023-05-07T00:36:57;8.48;;;3.00;;
68854;SDS011;69984;-43.570;172.580;2023-05-07T00:39:24;9.93;;;3.40;;
68854;SDS011;69984;-43.570;172.580;2023-05-07T00:41:51;13.50;;;3.17;;
68854;SDS011;69984;-43.570;172.580;2023-05-07T00:44:18;4.82;;;2.45;;
68854;SDS011;69984;-43.570;172.580;2023-05-07T00:46:45;7.90;;;2.75;;
68854;SDS011;69984;-43.570;172.580;2023-05-07T00:49:15;15.88;;;3.72;;
68854;SDS011;69984;-43.570;172.580;2023-05-07T00:51:42;9.68;;;3.03;;
68854;SDS011;69984;-43.570;172.580;2023-05-07T00:54:10;7.50;;;2.83;;
68854;SDS011;69984;-43.570;172.580;2023-05-07T00:56:39;8.18;;;2.92;;
68854;SDS011;69984;-43.570;172.580;2023-05-07T00:59:07;10.52;;;2.72;;
68854;SDS011;69984;-43.570;172.580;2023-05-07T01:01:34;11.95;;;2.53;;
68854;SDS011;69984;-43.570;172.580;2023-05-07T01:04:02;7.57;;;2.83;;
68854;SDS011;69984;-43.570;172.580;2023-05-07T01:06:29;6.15;;;2.33;;
68854;SDS011;69984;-43.570;172.580;2023-05-07T01:08:58;15.38;;;3.70;;
68854;SDS011;69984;-43.570;172.580;2023-05-07T01:11:30;7.20;;;2.40;;
68854;SDS011;69984;-43.570;172.580;2023-05-07T01:13:58;14.63;;;3.28;;
68854;SDS011;69984;-43.570;172.580;2023-05-07T01:16:26;11.70;;;3.10;;
68854;SDS011;69984;-43.570;172.580;2023-05-07T01:18:53;10.68;;;3.42;;
68854;SDS011;69984;-43.570;172.580;2023-05-07T01:21:23;9.77;;;3.50;;
68854;SDS011;69984;-43.570;172.580;2023-05-07T01:23:53;13.73;;;3.22;;
68854;SDS011;69984;-43.570;172.580;2023-05-07T01:26:22;6.50;;;2.80;;
68854;SDS011;69984;-43.570;172.580;2023-05-07T01:28:49;9.82;;;2.55;;
68854;SDS011;69984;-43.570;172.580;2023-05-07T01:31:16;9.02;;;2.33;;
68854;SDS011;69984;-43.570;172.580;2023-05-07T01:33:44;10.60;;;2.60;;
68854;SDS011;69984;-43.570;172.580;2023-05-07T01:36:14;14.02;;;2.67;;
68854;SDS011;69984;-43.570;172.580;2023-05-07T01:38:43;13.48;;;2.92;;
68854;SDS011;69984;-43.570;172.580;2023-05-07T01:41:11;8.23;;;3.80;;
68854;SDS011;69984;-43.570;172.580;2023-05-07T01:43:39;14.50;;;3.13;;
68854;SDS011;69984;-43.570;172.580;2023-05-07T01:46:08;5.05;;;3.05;;
68854;SDS011;69984;-43.570;172.580;2023-05-07T01:48:36;10.43;;;3.50;;
68854;SDS011;69984;-43.570;172.580;2023-05-07T01:51:05;5.82;;;2.80;;
68854;SDS011;69984;-43.570;172.580;2023-05-07T01:53:36;10.68;;;2.85;;
68854;SDS011;69984;-43.570;172.580;2023-05-07T01:56:04;7.90;;;3.00;;
68854;SDS011;69984;-43.570;172.580;2023-05-07T01:58:32;8.75;;;2.92;;
68854;SDS011;69984;-43.570;172.580;2023-05-07T02:01:00;5.78;;;2.97;;
68854;SDS011;69984;-43.570;172.580;2023-05-07T02:03:27;8.85;;;2.58;;
68854;SDS011;69984;-43.570;172.580;2023-05-07T02:05:55;10.65;;;2.85;;
68854;SDS011;69984;-43.570;172.580;2023-05-07T02:08:22;9.05;;;3.50;;
68854;SDS011;69984;-43.570;172.580;2023-05-07T02:10:49;12.18;;;3.25;;
68854;SDS011;69984;-43.570;172.580;2023-05-07T02:13:17;12.40;;;2.88;;
68854;SDS011;69984;-43.570;172.580;2023-05-07T02:15:45;9.85;;;3.13;;
68854;SDS011;69984;-43.570;172.580;2023-05-07T02:18:16;11.75;;;4.13;;
68854;SDS011;69984;-43.570;172.580;2023-05-07T02:20:43;9.63;;;3.58;;
68854;SDS011;69984;-43.570;172.580;2023-05-07T02:23:10;14.75;;;4.80;;
68854;SDS011;69984;-43.570;172.580;2023-05-07T02:25:37;13.30;;;3.90;;
68854;SDS011;69984;-43.570;172.580;2023-05-07T02:28:05;10.18;;;4.13;;
68854;SDS011;69984;-43.570;172.580;2023-05-07T02:30:32;10.05;;;4.03;;
68854;SDS011;69984;-43.570;172.580;2023-05-07T02:32:59;17.08;;;4.85;;
68854;SDS011;69984;-43.570;172.580;2023-05-07T02:35:27;8.93;;;4.03;;
68854;SDS011;69984;-43.570;172.580;2023-05-07T02:37:54;12.05;;;4.60;;
68854;SDS011;69984;-43.570;172.580;2023-05-07T02:40:21;9.23;;;3.78;;
68854;SDS011;69984;-43.570;172.580;2023-05-07T02:42:48;9.40;;;3.42;;
68854;SDS011;69984;-43.570;172.580;2023-05-07T02:45:15;8.75;;;2.60;;
68854;SDS011;69984;-43.570;172.580;2023-05-07T02:47:43;8.60;;;3.15;;
68854;SDS011;69984;-43.570;172.580;2023-05-07T02:50:10;8.02;;;2.90;;
68854;SDS011;69984;-43.570;172.580;2023-05-07T02:52:37;6.72;;;2.67;;
68854;SDS011;69984;-43.570;172.580;2023-05-07T02:55:05;11.57;;;3.38;;
68854;SDS011;69984;-43.570;172.580;2023-05-07T02:57:32;11.63;;;3.70;;
68854;SDS011;69984;-43.570;172.580;2023-05-07T03:00:06;10.02;;;2.97;;
68854;SDS011;69984;-43.570;172.580;2023-05-07T03:02:37;9.48;;;2.88;;
68854;SDS011;69984;-43.570;172.580;2023-05-07T03:05:04;11.00;;;3.05;;
68854;SDS011;69984;-43.570;172.580;2023-05-07T03:07:32;15.07;;;4.03;;
68854;SDS011;69984;-43.570;172.580;2023-05-07T03:09:59;10.27;;;3.17;;
68854;SDS011;69984;-43.570;172.580;2023-05-07T03:12:26;13.35;;;3.47;;
68854;SDS011;69984;-43.570;172.580;2023-05-07T03:14:54;11.68;;;3.28;;
68854;SDS011;69984;-43.570;172.580;2023-05-07T03:17:21;14.85;;;4.63;;
68854;SDS011;69984;-43.570;172.580;2023-05-07T03:19:48;14.52;;;3.88;;
68854;SDS011;69984;-43.570;172.580;2023-05-07T03:22:15;13.63;;;4.22;;
68854;SDS011;69984;-43.570;172.580;2023-05-07T03:24:43;11.90;;;3.75;;
68854;SDS011;69984;-43.570;172.580;2023-05-07T03:27:10;14.00;;;3.47;;
68854;SDS011;69984;-43.570;172.580;2023-05-07T03:29:37;7.38;;;2.78;;
68854;SDS011;69984;-43.570;172.580;2023-05-07T03:32:04;11.52;;;3.92;;
68854;SDS011;69984;-43.570;172.580;2023-05-07T03:34:32;7.22;;;2.85;;
68854;SDS011;69984;-43.570;172.580;2023-05-07T03:36:59;12.50;;;3.58;;
68854;SDS011;69984;-43.570;172.580;2023-05-07T03:39:27;10.15;;;3.10;;
68854;SDS011;69984;-43.570;172.580;2023-05-07T03:41:54;4.30;;;2.40;;
68854;SDS011;69984;-43.570;172.580;2023-05-07T03:44:21;12.88;;;3.08;;
68854;SDS011;69984;-43.570;172.580;2023-05-07T03:46:48;7.05;;;3.30;;
68854;SDS011;69984;-43.570;172.580;2023-05-07T03:49:15;11.98;;;3.47;;
68854;SDS011;69984;-43.570;172.580;2023-05-07T03:51:43;7.00;;;3.33;;
68854;SDS011;69984;-43.570;172.580;2023-05-07T03:54:10;10.00;;;3.58;;
68854;SDS011;69984;-43.570;172.580;2023-05-07T03:56:38;6.95;;;3.33;;
68854;SDS011;69984;-43.570;172.580;2023-05-07T03:59:05;13.35;;;3.40;;
68854;SDS011;69984;-43.570;172.580;2023-05-07T04:01:32;10.63;;;3.80;;
68854;SDS011;69984;-43.570;172.580;2023-05-07T04:03:59;14.18;;;4.05;;
68854;SDS011;69984;-43.570;172.580;2023-05-07T04:06:27;14.18;;;3.90;;
68854;SDS011;69984;-43.570;172.580;2023-05-07T04:08:54;13.32;;;4.00;;
68854;SDS011;69984;-43.570;172.580;2023-05-07T04:11:21;7.50;;;3.50;;
68854;SDS011;69984;-43.570;172.580;2023-05-07T04:13:48;9.43;;;3.97;;
68854;SDS011;69984;-43.570;172.580;2023-05-07T04:16:15;7.15;;;3.55;;
68854;SDS011;69984;-43.570;172.580;2023-05-07T04:18:42;12.52;;;4.00;;
68854;SDS011;69984;-43.570;172.580;2023-05-07T04:21:16;13.90;;;4.47;;
68854;SDS011;69984;-43.570;172.580;2023-05-07T04:23:47;9.07;;;3.72;;
68854;SDS011;69984;-43.570;172.580;2023-05-07T04:26:15;8.07;;;3.50;;
68854;SDS011;69984;-43.570;172.580;2023-05-07T04:28:42;12.88;;;4.32;;
68854;SDS011;69984;-43.570;172.580;2023-05-07T04:31:09;16.17;;;5.43;;
68854;SDS011;69984;-43.570;172.580;2023-05-07T04:33:36;19.48;;;5.82;;
68854;SDS011;69984;-43.570;172.580;2023-05-07T04:36:04;11.27;;;5.15;;
68854;SDS011;69984;-43.570;172.580;2023-05-07T04:38:31;14.00;;;4.53;;
68854;SDS011;69984;-43.570;172.580;2023-05-07T04:41:08;27.40;;;5.13;;
68854;SDS011;69984;-43.570;172.580;2023-05-07T04:43:35;12.32;;;3.60;;
68854;SDS011;69984;-43.570;172.580;2023-05-07T04:46:04;9.48;;;3.20;;
68854;SDS011;69984;-43.570;172.580;2023-05-07T04:48:31;7.75;;;3.30;;
68854;SDS011;69984;-43.570;172.580;2023-05-07T04:50:58;10.75;;;3.38;;
68854;SDS011;69984;-43.570;172.580;2023-05-07T04:53:25;4.45;;;2.83;;
68854;SDS011;69984;-43.570;172.580;2023-05-07T04:55:56;8.63;;;3.33;;
68854;SDS011;69984;-43.570;172.580;2023-05-07T04:58:24;12.25;;;3.30;;
68854;SDS011;69984;-43.570;172.580;2023-05-07T05:00:52;10.05;;;3.30;;
68854;SDS011;69984;-43.570;172.580;2023-05-07T05:03:20;8.70;;;3.88;;
68854;SDS011;69984;-43.570;172.580;2023-05-07T05:05:48;6.97;;;4.13;;
68854;SDS011;69984;-43.570;172.580;2023-05-07T05:08:17;8.73;;;4.60;;
68854;SDS011;69984;-43.570;172.580;2023-05-07T05:10:44;25.42;;;5.57;;
68854;SDS011;69984;-43.570;172.580;2023-05-07T05:13:14;7.25;;;4.40;;
68854;SDS011;69984;-43.570;172.580;2023-05-07T05:15:41;18.95;;;5.22;;
68854;SDS011;69984;-43.570;172.580;2023-05-07T05:18:08;13.50;;;5.45;;
68854;SDS011;69984;-43.570;172.580;2023-05-07T05:20:35;17.73;;;4.60;;
68854;SDS011;69984;-43.570;172.580;2023-05-07T05:23:02;11.90;;;5.35;;
68854;SDS011;69984;-43.570;172.580;2023-05-07T05:25:29;15.77;;;4.60;;
68854;SDS011;69984;-43.570;172.580;2023-05-07T05:27:57;13.98;;;5.25;;
68854;SDS011;69984;-43.570;172.580;2023-05-07T05:30:24;11.93;;;4.72;;
68854;SDS011;69984;-43.570;172.580;2023-05-07T05:32:51;15.18;;;5.25;;
68854;SDS011;69984;-43.570;172.580;2023-05-07T05:35:19;10.43;;;5.63;;
68854;SDS011;69984;-43.570;172.580;2023-05-07T05:37:46;9.20;;;5.00;;
68854;SDS011;69984;-43.570;172.580;2023-05-07T05:40:13;14.75;;;5.95;;
68854;SDS011;69984;-43.570;172.580;2023-05-07T05:42:40;13.13;;;5.43;;
68854;SDS011;69984;-43.570;172.580;2023-05-07T05:45:08;13.85;;;6.10;;
68854;SDS011;69984;-43.570;172.580;2023-05-07T05:47:35;14.50;;;5.43;;
68854;SDS011;69984;-43.570;172.580;2023-05-07T05:50:03;15.25;;;5.90;;
68854;SDS011;69984;-43.570;172.580;2023-05-07T05:52:31;14.77;;;6.38;;
68854;SDS011;69984;-43.570;172.580;2023-05-07T05:54:59;13.27;;;6.05;;
68854;SDS011;69984;-43.570;172.580;2023-05-07T05:57:26;14.10;;;5.50;;
68854;SDS011;69984;-43.570;172.580;2023-05-07T05:59:53;16.05;;;6.10;;
68854;SDS011;69984;-43.570;172.580;2023-05-07T06:02:20;10.05;;;6.00;;
68854;SDS011;69984;-43.570;172.580;2023-05-07T06:04:48;19.95;;;6.07;;
68854;SDS011;69984;-43.570;172.580;2023-05-07T06:07:15;21.15;;;7.68;;
68854;SDS011;69984;-43.570;172.580;2023-05-07T06:09:42;14.25;;;7.05;;
68854;SDS011;69984;-43.570;172.580;2023-05-07T06:12:09;17.15;;;7.22;;
68854;SDS011;69984;-43.570;172.580;2023-05-07T06:14:37;18.92;;;7.38;;
68854;SDS011;69984;-43.570;172.580;2023-05-07T06:17:04;18.58;;;7.63;;
68854;SDS011;69984;-43.570;172.580;2023-05-07T06:19:31;14.73;;;7.05;;
68854;SDS011;69984;-43.570;172.580;2023-05-07T06:21:58;19.25;;;7.38;;
68854;SDS011;69984;-43.570;172.580;2023-05-07T06:24:27;19.10;;;8.05;;
68854;SDS011;69984;-43.570;172.580;2023-05-07T06:26:54;16.27;;;8.00;;
68854;SDS011;69984;-43.570;172.580;2023-05-07T06:31:54;13.13;;;7.18;;
68854;SDS011;69984;-43.570;172.580;2023-05-07T06:34:21;18.25;;;6.93;;
68854;SDS011;69984;-43.570;172.580;2023-05-07T06:36:48;15.77;;;7.57;;
68854;SDS011;69984;-43.570;172.580;2023-05-07T06:39:15;13.30;;;7.57;;
68854;SDS011;69984;-43.570;172.580;2023-05-07T06:41:42;14.50;;;7.55;;
68854;SDS011;69984;-43.570;172.580;2023-05-07T06:44:10;21.98;;;7.47;;
68854;SDS011;69984;-43.570;172.580;2023-05-07T06:46:37;16.77;;;7.30;;
68854;SDS011;69984;-43.570;172.580;2023-05-07T06:49:04;21.75;;;6.68;;
68854;SDS011;69984;-43.570;172.580;2023-05-07T06:51:31;9.05;;;6.28;;
68854;SDS011;69984;-43.570;172.580;2023-05-07T06:53:59;23.90;;;6.00;;
68854;SDS011;69984;-43.570;172.580;2023-05-07T06:56:26;14.40;;;6.07;;
68854;SDS011;69984;-43.570;172.580;2023-05-07T06:58:53;19.85;;;6.10;;
68854;SDS011;69984;-43.570;172.580;2023-05-07T07:01:20;17.17;;;5.57;;
68854;SDS011;69984;-43.570;172.580;2023-05-07T07:03:47;8.07;;;5.18;;
68854;SDS011;69984;-43.570;172.580;2023-05-07T07:06:16;13.40;;;5.60;;
68854;SDS011;69984;-43.570;172.580;2023-05-07T07:08:44;12.73;;;5.93;;
68854;SDS011;69984;-43.570;172.580;2023-05-07T07:11:11;17.33;;;6.18;;
68854;SDS011;69984;-43.570;172.580;2023-05-07T07:13:38;14.07;;;5.88;;
68854;SDS011;69984;-43.570;172.580;2023-05-07T07:16:05;8.15;;;5.15;;
68854;SDS011;69984;-43.570;172.580;2023-05-07T07:18:32;14.65;;;5.20;;
68854;SDS011;69984;-43.570;172.580;2023-05-07T07:21:01;21.42;;;5.30;;
68854;SDS011;69984;-43.570;172.580;2023-05-07T07:23:28;18.45;;;5.90;;
68854;SDS011;69984;-43.570;172.580;2023-05-07T07:25:55;15.15;;;5.10;;
68854;SDS011;69984;-43.570;172.580;2023-05-07T07:28:22;19.63;;;5.32;;
68854;SDS011;69984;-43.570;172.580;2023-05-07T07:30:50;20.70;;;4.93;;
68854;SDS011;69984;-43.570;172.580;2023-05-07T07:33:17;10.32;;;5.45;;
68854;SDS011;69984;-43.570;172.580;2023-05-07T07:35:44;24.73;;;5.13;;
68854;SDS011;69984;-43.570;172.580;2023-05-07T07:38:11;12.15;;;4.60;;
68854;SDS011;69984;-43.570;172.580;2023-05-07T07:40:38;19.40;;;5.50;;
68854;SDS011;69984;-43.570;172.580;2023-05-07T07:43:05;20.63;;;4.85;;
68854;SDS011;69984;-43.570;172.580;2023-05-07T07:45:32;12.45;;;4.43;;
68854;SDS011;69984;-43.570;172.580;2023-05-07T07:48:00;15.57;;;4.70;;
68854;SDS011;69984;-43.570;172.580;2023-05-07T07:50:27;9.52;;;4.03;;
68854;SDS011;69984;-43.570;172.580;2023-05-07T07:52:54;15.07;;;4.53;;
68854;SDS011;69984;-43.570;172.580;2023-05-07T07:55:22;12.25;;;4.22;;
68854;SDS011;69984;-43.570;172.580;2023-05-07T07:57:49;7.65;;;3.63;;
68854;SDS011;69984;-43.570;172.580;2023-05-07T08:00:16;10.23;;;3.88;;
68854;SDS011;69984;-43.570;172.580;2023-05-07T08:02:44;15.93;;;3.75;;
68854;SDS011;69984;-43.570;172.580;2023-05-07T08:05:11;6.45;;;3.80;;
68854;SDS011;69984;-43.570;172.580;2023-05-07T08:07:38;13.07;;;3.58;;
68854;SDS011;69984;-43.570;172.580;2023-05-07T08:10:05;10.05;;;3.63;;
68854;SDS011;69984;-43.570;172.580;2023-05-07T08:12:32;10.02;;;3.38;;
68854;SDS011;69984;-43.570;172.580;2023-05-07T08:15:00;12.32;;;3.85;;
68854;SDS011;69984;-43.570;172.580;2023-05-07T08:17:27;14.18;;;3.78;;
68854;SDS011;69984;-43.570;172.580;2023-05-07T08:19:54;10.13;;;4.20;;
68854;SDS011;69984;-43.570;172.580;2023-05-07T08:22:21;11.32;;;3.72;;
68854;SDS011;69984;-43.570;172.580;2023-05-07T08:24:48;12.38;;;3.85;;
68854;SDS011;69984;-43.570;172.580;2023-05-07T08:27:16;12.20;;;3.70;;
68854;SDS011;69984;-43.570;172.580;2023-05-07T08:29:43;17.23;;;4.18;;
68854;SDS011;69984;-43.570;172.580;2023-05-07T08:32:13;14.63;;;4.10;;
68854;SDS011;69984;-43.570;172.580;2023-05-07T08:34:40;10.60;;;4.63;;
68854;SDS011;69984;-43.570;172.580;2023-05-07T08:37:07;21.75;;;4.10;;
68854;SDS011;69984;-43.570;172.580;2023-05-07T08:39:34;15.80;;;4.35;;
68854;SDS011;69984;-43.570;172.580;2023-05-07T08:42:01;9.10;;;3.63;;
68854;SDS011;69984;-43.570;172.580;2023-05-07T08:44:34;10.40;;;4.63;;
68854;SDS011;69984;-43.570;172.580;2023-05-07T08:47:01;17.48;;;3.80;;
68854;SDS011;69984;-43.570;172.580;2023-05-07T08:49:28;11.05;;;3.45;;
68854;SDS011;69984;-43.570;172.580;2023-05-07T08:51:56;12.48;;;3.95;;
68854;SDS011;69984;-43.570;172.580;2023-05-07T08:54:23;16.63;;;4.00;;
68854;SDS011;69984;-43.570;172.580;2023-05-07T08:56:52;11.80;;;3.08;;
68854;SDS011;69984;-43.570;172.580;2023-05-07T08:59:19;6.65;;;3.15;;
68854;SDS011;69984;-43.570;172.580;2023-05-07T09:01:46;9.15;;;3.10;;
68854;SDS011;69984;-43.570;172.580;2023-05-07T09:04:14;7.45;;;2.50;;
68854;SDS011;69984;-43.570;172.580;2023-05-07T09:06:41;4.15;;;2.80;;
68854;SDS011;69984;-43.570;172.580;2023-05-07T09:09:08;7.45;;;2.88;;
68854;SDS011;69984;-43.570;172.580;2023-05-07T09:11:36;12.60;;;3.20;;
68854;SDS011;69984;-43.570;172.580;2023-05-07T09:14:03;11.18;;;3.50;;
68854;SDS011;69984;-43.570;172.580;2023-05-07T09:16:30;4.93;;;3.22;;
68854;SDS011;69984;-43.570;172.580;2023-05-07T09:18:58;6.28;;;3.00;;
68854;SDS011;69984;-43.570;172.580;2023-05-07T09:21:26;9.00;;;3.50;;
68854;SDS011;69984;-43.570;172.580;2023-05-07T09:23:54;10.63;;;3.70;;
68854;SDS011;69984;-43.570;172.580;2023-05-07T09:26:22;15.77;;;3.90;;
68854;SDS011;69984;-43.570;172.580;2023-05-07T09:28:50;20.50;;;3.80;;
68854;SDS011;69984;-43.570;172.580;2023-05-07T09:31:18;8.40;;;3.50;;
68854;SDS011;69984;-43.570;172.580;2023-05-07T09:33:48;14.23;;;3.60;;
68854;SDS011;69984;-43.570;172.580;2023-05-07T09:36:16;11.57;;;3.75;;
68854;SDS011;69984;-43.570;172.580;2023-05-07T09:38:44;13.18;;;4.00;;
68854;SDS011;69984;-43.570;172.580;2023-05-07T09:41:12;9.20;;;3.95;;
68854;SDS011;69984;-43.570;172.580;2023-05-07T09:43:39;8.25;;;3.40;;
68854;SDS011;69984;-43.570;172.580;2023-05-07T09:46:09;12.30;;;4.30;;
68854;SDS011;69984;-43.570;172.580;2023-05-07T09:48:40;9.43;;;4.25;;
68854;SDS011;69984;-43.570;172.580;2023-05-07T09:53:59;12.57;;;4.10;;
68854;SDS011;69984;-43.570;172.580;2023-05-07T09:56:32;10.63;;;3.70;;
68854;SDS011;69984;-43.570;172.580;2023-05-07T09:59:00;14.73;;;3.42;;
68854;SDS011;69984;-43.570;172.580;2023-05-07T10:01:30;9.32;;;3.83;;
68854;SDS011;69984;-43.570;172.580;2023-05-07T10:03:57;14.30;;;3.85;;
68854;SDS011;69984;-43.570;172.580;2023-05-07T10:06:25;9.27;;;3.25;;
68854;SDS011;69984;-43.570;172.580;2023-05-07T10:08:52;14.15;;;3.83;;
68854;SDS011;69984;-43.570;172.580;2023-05-07T10:11:21;8.75;;;3.28;;
68854;SDS011;69984;-43.570;172.580;2023-05-07T10:13:48;12.00;;;3.97;;
68854;SDS011;69984;-43.570;172.580;2023-05-07T10:16:16;12.30;;;4.22;;
68854;SDS011;69984;-43.570;172.580;2023-05-07T10:18:44;14.75;;;4.65;;
68854;SDS011;69984;-43.570;172.580;2023-05-07T10:21:16;10.27;;;3.75;;
68854;SDS011;69984;-43.570;172.580;2023-05-07T10:23:45;10.77;;;2.92;;
68854;SDS011;69984;-43.570;172.580;2023-05-07T10:26:20;19.48;;;3.90;;
68854;SDS011;69984;-43.570;172.580;2023-05-07T10:28:50;8.32;;;3.33;;
68854;SDS011;69984;-43.570;172.580;2023-05-07T10:33:48;11.82;;;4.32;;
68854;SDS011;69984;-43.570;172.580;2023-05-07T10:36:17;13.38;;;5.85;;
68854;SDS011;69984;-43.570;172.580;2023-05-07T10:38:45;9.10;;;4.05;;
68854;SDS011;69984;-43.570;172.580;2023-05-07T10:41:12;13.15;;;4.45;;
68854;SDS011;69984;-43.570;172.580;2023-05-07T10:43:41;14.30;;;4.78;;
68854;SDS011;69984;-43.570;172.580;2023-05-07T10:51:32;14.85;;;5.18;;
68854;SDS011;69984;-43.570;172.580;2023-05-07T10:56:40;9.68;;;4.18;;
68854;SDS011;69984;-43.570;172.580;2023-05-07T11:04:28;8.48;;;4.35;;
68854;SDS011;69984;-43.570;172.580;2023-05-07T11:15:07;10.02;;;3.55;;
68854;SDS011;69984;-43.570;172.580;2023-05-07T11:26:09;13.27;;;3.60;;
68854;SDS011;69984;-43.570;172.580;2023-05-07T11:28:38;11.10;;;3.90;;
68854;SDS011;69984;-43.570;172.580;2023-05-07T11:31:09;12.15;;;3.85;;
68854;SDS011;69984;-43.570;172.580;2023-05-07T11:33:37;15.88;;;3.42;;
68854;SDS011;69984;-43.570;172.580;2023-05-07T11:36:05;11.10;;;3.60;;
68854;SDS011;69984;-43.570;172.580;2023-05-07T11:38:35;18.35;;;3.85;;
68854;SDS011;69984;-43.570;172.580;2023-05-07T11:41:03;13.20;;;3.67;;
68854;SDS011;69984;-43.570;172.580;2023-05-07T11:43:33;8.80;;;4.05;;
68854;SDS011;69984;-43.570;172.580;2023-05-07T11:46:19;10.40;;;3.60;;
68854;SDS011;69984;-43.570;172.580;2023-05-07T11:48:47;8.13;;;3.40;;
68854;SDS011;69984;-43.570;172.580;2023-05-07T11:51:14;16.63;;;4.05;;
68854;SDS011;69984;-43.570;172.580;2023-05-07T11:53:47;7.35;;;3.97;;
68854;SDS011;69984;-43.570;172.580;2023-05-07T11:56:15;15.45;;;4.05;;
68854;SDS011;69984;-43.570;172.580;2023-05-07T11:58:44;17.17;;;3.95;;
68854;SDS011;69984;-43.570;172.580;2023-05-07T12:01:13;22.30;;;4.15;;
68854;SDS011;69984;-43.570;172.580;2023-05-07T12:03:42;16.85;;;4.18;;
68854;SDS011;69984;-43.570;172.580;2023-05-07T12:06:11;17.25;;;3.75;;
68854;SDS011;69984;-43.570;172.580;2023-05-07T12:08:41;7.53;;;3.00;;
68854;SDS011;69984;-43.570;172.580;2023-05-07T12:11:14;9.15;;;2.60;;
68854;SDS011;69984;-43.570;172.580;2023-05-07T12:13:47;10.85;;;3.00;;
68854;SDS011;69984;-43.570;172.580;2023-05-07T12:16:15;12.18;;;3.42;;
68854;SDS011;69984;-43.570;172.580;2023-05-07T12:18:42;17.48;;;3.22;;
68854;SDS011;69984;-43.570;172.580;2023-05-07T12:21:10;10.75;;;3.35;;
68854;SDS011;69984;-43.570;172.580;2023-05-07T12:23:38;8.75;;;3.30;;
68854;SDS011;69984;-43.570;172.580;2023-05-07T12:26:06;5.80;;;2.53;;
68854;SDS011;69984;-43.570;172.580;2023-05-07T12:28:38;11.55;;;2.55;;
68854;SDS011;69984;-43.570;172.580;2023-05-07T12:31:05;9.38;;;2.72;;
68854;SDS011;69984;-43.570;172.580;2023-05-07T12:33:33;13.27;;;2.80;;
68854;SDS011;69984;-43.570;172.580;2023-05-07T12:36:06;9.93;;;2.20;;
68854;SDS011;69984;-43.570;172.580;2023-05-07T12:38:39;4.00;;;1.98;;
68854;SDS011;69984;-43.570;172.580;2023-05-07T12:41:07;6.47;;;2.58;;
68854;SDS011;69984;-43.570;172.580;2023-05-07T12:43:35;11.63;;;2.35;;
68854;SDS011;69984;-43.570;172.580;2023-05-07T12:46:05;7.70;;;2.15;;
68854;SDS011;69984;-43.570;172.580;2023-05-07T12:48:35;7.43;;;2.20;;
68854;SDS011;69984;-43.570;172.580;2023-05-07T12:51:04;6.03;;;1.58;;
68854;SDS011;69984;-43.570;172.580;2023-05-07T12:53:33;3.75;;;1.63;;
68854;SDS011;69984;-43.570;172.580;2023-05-07T12:56:05;6.35;;;1.52;;
68854;SDS011;69984;-43.570;172.580;2023-05-07T12:58:33;7.22;;;1.30;;
68854;SDS011;69984;-43.570;172.580;2023-05-07T13:01:05;2.80;;;1.30;;
68854;SDS011;69984;-43.570;172.580;2023-05-07T13:03:35;3.78;;;1.10;;
68854;SDS011;69984;-43.570;172.580;2023-05-07T13:06:07;2.22;;;1.23;;
68854;SDS011;69984;-43.570;172.580;2023-05-07T13:08:38;4.43;;;0.93;;
68854;SDS011;69984;-43.570;172.580;2023-05-07T13:11:09;3.70;;;1.38;;
68854;SDS011;69984;-43.570;172.580;2023-05-07T13:13:37;3.00;;;1.25;;
68854;SDS011;69984;-43.570;172.580;2023-05-07T13:16:07;4.05;;;1.10;;
68854;SDS011;69984;-43.570;172.580;2023-05-07T13:18:37;4.18;;;1.15;;
68854;SDS011;69984;-43.570;172.580;2023-05-07T13:23:32;2.45;;;1.00;;
68854;SDS011;69984;-43.570;172.580;2023-05-07T13:26:00;3.45;;;0.70;;
68854;SDS011;69984;-43.570;172.580;2023-05-07T13:28:27;3.20;;;0.80;;
68854;SDS011;69984;-43.570;172.580;2023-05-07T13:30:55;3.85;;;1.27;;
68854;SDS011;69984;-43.570;172.580;2023-05-07T13:33:22;2.90;;;1.20;;
68854;SDS011;69984;-43.570;172.580;2023-05-07T13:35:49;5.20;;;0.90;;
68854;SDS011;69984;-43.570;172.580;2023-05-07T13:38:16;3.03;;;0.93;;
68854;SDS011;69984;-43.570;172.580;2023-05-07T13:40:43;0.93;;;0.70;;
68854;SDS011;69984;-43.570;172.580;2023-05-07T13:43:11;1.30;;;0.60;;
68854;SDS011;69984;-43.570;172.580;2023-05-07T13:45:38;1.10;;;0.82;;
68854;SDS011;69984;-43.570;172.580;2023-05-07T13:48:05;2.97;;;0.70;;
68854;SDS011;69984;-43.570;172.580;2023-05-07T13:50:32;3.30;;;0.82;;
68854;SDS011;69984;-43.570;172.580;2023-05-07T13:53:00;0.60;;;0.43;;
68854;SDS011;69984;-43.570;172.580;2023-05-07T13:55:28;2.45;;;0.60;;
68854;SDS011;69984;-43.570;172.580;2023-05-07T13:57:56;0.65;;;0.52;;
68854;SDS011;69984;-43.570;172.580;2023-05-07T14:00:28;0.80;;;0.50;;
68854;SDS011;69984;-43.570;172.580;2023-05-07T14:02:56;2.47;;;0.70;;
68854;SDS011;69984;-43.570;172.580;2023-05-07T14:05:23;2.53;;;0.65;;
68854;SDS011;69984;-43.570;172.580;2023-05-07T14:07:52;2.08;;;0.50;;
68854;SDS011;69984;-43.570;172.580;2023-05-07T14:10:20;1.00;;;0.50;;
68854;SDS011;69984;-43.570;172.580;2023-05-07T14:12:47;2.60;;;0.65;;
68854;SDS011;69984;-43.570;172.580;2023-05-07T14:15:14;3.13;;;0.57;;
68854;SDS011;69984;-43.570;172.580;2023-05-07T14:17:42;4.13;;;0.70;;
68854;SDS011;69984;-43.570;172.580;2023-05-07T14:20:10;2.88;;;0.43;;
68854;SDS011;69984;-43.570;172.580;2023-05-07T14:22:38;3.33;;;0.60;;
68854;SDS011;69984;-43.570;172.580;2023-05-07T14:25:05;5.40;;;0.90;;
68854;SDS011;69984;-43.570;172.580;2023-05-07T14:30:01;1.13;;;0.50;;
68854;SDS011;69984;-43.570;172.580;2023-05-07T14:32:28;2.03;;;0.50;;
68854;SDS011;69984;-43.570;172.580;2023-05-07T14:34:55;1.40;;;0.60;;
68854;SDS011;69984;-43.570;172.580;2023-05-07T14:37:23;2.40;;;0.52;;
68854;SDS011;69984;-43.570;172.580;2023-05-07T14:39:50;2.05;;;0.60;;
68854;SDS011;69984;-43.570;172.580;2023-05-07T14:42:17;1.25;;;0.45;;
68854;SDS011;69984;-43.570;172.580;2023-05-07T14:44:45;0.75;;;0.50;;
68854;SDS011;69984;-43.570;172.580;2023-05-07T14:47:13;4.68;;;0.40;;